sensor_id;sensor_type;location;lat;lon;timestamp;P1;durP1;ratioP1;P2;durP2;ratioP2
24337;SDS011;12457;50.832;4.346;2023-07-28T00:00:06;7.85;;;3.75;;
24337;SDS011;12457;50.832;4.346;2023-07-28T00:02:33;5.00;;;3.10;;
24337;SDS011;12457;50.832;4.346;2023-07-28T00:04:59;5.68;;;3.80;;
24337;SDS011;12457;50.832;4.346;2023-07-28T00:07:24;7.28;;;3.63;;
24337;SDS011;12457;50.832;4.346;2023-07-28T00:09:50;5.32;;;3.55;;
24337;SDS011;12457;50.832;4.346;2023-07-28T00:12:20;4.43;;;3.50;;
24337;SDS011;12457;50.832;4.346;2023-07-28T00:14:47;5.70;;;3.50;;
24337;SDS011;12457;50.832;4.346;2023-07-28T00:17:12;5.57;;;3.55;;
24337;SDS011;12457;50.832;4.346;2023-07-28T00:19:38;5.90;;;3.53;;
24337;SDS011;12457;50.832;4.346;2023-07-28T00:22:04;4.60;;;3.53;;
24337;SDS011;12457;50.832;4.346;2023-07-28T00:24:29;3.95;;;3.40;;
24337;SDS011;12457;50.832;4.346;2023-07-28T00:27:10;6.55;;;3.83;;
24337;SDS011;12457;50.832;4.346;2023-07-28T00:29:39;4.57;;;2.95;;
24337;SDS011;12457;50.832;4.346;2023-07-28T00:32:06;6.78;;;4.28;;
24337;SDS011;12457;50.832;4.346;2023-07-28T00:34:32;4.28;;;3.70;;
24337;SDS011;12457;50.832;4.346;2023-07-28T00:36:58;4.65;;;3.80;;
24337;SDS011;12457;50.832;4.346;2023-07-28T00:39:24;6.00;;;3.88;;
24337;SDS011;12457;50.832;4.346;2023-07-28T00:41:49;6.53;;;3.67;;
24337;SDS011;12457;50.832;4.346;2023-07-28T00:44:15;5.30;;;4.00;;
24337;SDS011;12457;50.832;4.346;2023-07-28T00:46:42;9.45;;;4.22;;
24337;SDS011;12457;50.832;4.346;2023-07-28T00:49:08;5.55;;;3.67;;
24337;SDS011;12457;50.832;4.346;2023-07-28T00:51:35;7.35;;;4.03;;
24337;SDS011;12457;50.832;4.346;2023-07-28T00:54:03;6.68;;;4.45;;
24337;SDS011;12457;50.832;4.346;2023-07-28T00:56:30;6.30;;;4.18;;
24337;SDS011;12457;50.832;4.346;2023-07-28T00:58:57;6.93;;;4.65;;
24337;SDS011;12457;50.832;4.346;2023-07-28T01:01:22;6.57;;;4.60;;
24337;SDS011;12457;50.832;4.346;2023-07-28T01:03:49;8.30;;;3.88;;
24337;SDS011;12457;50.832;4.346;2023-07-28T01:09:13;9.43;;;4.60;;
24337;SDS011;12457;50.832;4.346;2023-07-28T01:11:56;7.68;;;4.57;;
24337;SDS011;12457;50.832;4.346;2023-07-28T01:14:23;6.63;;;4.68;;
24337;SDS011;12457;50.832;4.346;2023-07-28T01:16:49;8.02;;;4.47;;
24337;SDS011;12457;50.832;4.346;2023-07-28T01:19:19;6.10;;;4.50;;
24337;SDS011;12457;50.832;4.346;2023-07-28T01:21:53;11.15;;;4.70;;
24337;SDS011;12457;50.832;4.346;2023-07-28T01:24:28;6.90;;;5.03;;
24337;SDS011;12457;50.832;4.346;2023-07-28T01:27:03;10.98;;;6.10;;
24337;SDS011;12457;50.832;4.346;2023-07-28T01:29:32;7.25;;;4.88;;
24337;SDS011;12457;50.832;4.346;2023-07-28T01:31:59;11.88;;;5.28;;
24337;SDS011;12457;50.832;4.346;2023-07-28T01:34:24;8.52;;;4.72;;
24337;SDS011;12457;50.832;4.346;2023-07-28T01:36:50;10.65;;;5.35;;
24337;SDS011;12457;50.832;4.346;2023-07-28T01:39:16;11.05;;;5.45;;
24337;SDS011;12457;50.832;4.346;2023-07-28T01:41:41;9.82;;;5.75;;
24337;SDS011;12457;50.832;4.346;2023-07-28T01:44:10;7.00;;;5.45;;
24337;SDS011;12457;50.832;4.346;2023-07-28T01:46:35;11.65;;;5.60;;
24337;SDS011;12457;50.832;4.346;2023-07-28T01:49:01;9.82;;;5.75;;
24337;SDS011;12457;50.832;4.346;2023-07-28T01:51:27;9.93;;;5.65;;
24337;SDS011;12457;50.832;4.346;2023-07-28T01:53:52;12.55;;;6.10;;
24337;SDS011;12457;50.832;4.346;2023-07-28T01:56:18;9.25;;;5.95;;
24337;SDS011;12457;50.832;4.346;2023-07-28T01:58:44;12.10;;;6.63;;
24337;SDS011;12457;50.832;4.346;2023-07-28T02:01:12;14.48;;;7.25;;
24337;SDS011;12457;50.832;4.346;2023-07-28T02:03:38;13.55;;;6.80;;
24337;SDS011;12457;50.832;4.346;2023-07-28T02:06:03;16.13;;;7.18;;
24337;SDS011;12457;50.832;4.346;2023-07-28T02:08:29;15.77;;;8.18;;
24337;SDS011;12457;50.832;4.346;2023-07-28T02:10:55;13.70;;;8.43;;
24337;SDS011;12457;50.832;4.346;2023-07-28T02:13:20;14.30;;;7.80;;
24337;SDS011;12457;50.832;4.346;2023-07-28T02:15:46;13.85;;;6.95;;
24337;SDS011;12457;50.832;4.346;2023-07-28T02:18:11;10.88;;;6.60;;
24337;SDS011;12457;50.832;4.346;2023-07-28T02:20:37;10.60;;;6.60;;
24337;SDS011;12457;50.832;4.346;2023-07-28T02:23:04;12.95;;;7.20;;
24337;SDS011;12457;50.832;4.346;2023-07-28T02:25:29;12.18;;;7.03;;
24337;SDS011;12457;50.832;4.346;2023-07-28T02:27:55;11.20;;;6.78;;
24337;SDS011;12457;50.832;4.346;2023-07-28T02:30:21;12.73;;;7.18;;
24337;SDS011;12457;50.832;4.346;2023-07-28T02:32:46;16.50;;;6.57;;
24337;SDS011;12457;50.832;4.346;2023-07-28T02:35:12;13.73;;;6.93;;
24337;SDS011;12457;50.832;4.346;2023-07-28T02:37:38;14.18;;;6.88;;
24337;SDS011;12457;50.832;4.346;2023-07-28T02:40:04;11.75;;;7.30;;
24337;SDS011;12457;50.832;4.346;2023-07-28T02:42:30;11.18;;;7.13;;
24337;SDS011;12457;50.832;4.346;2023-07-28T02:44:56;13.75;;;7.32;;
24337;SDS011;12457;50.832;4.346;2023-07-28T02:47:21;14.80;;;7.50;;
24337;SDS011;12457;50.832;4.346;2023-07-28T02:49:48;12.55;;;6.80;;
24337;SDS011;12457;50.832;4.346;2023-07-28T02:52:14;14.50;;;6.55;;
24337;SDS011;12457;50.832;4.346;2023-07-28T02:54:39;11.00;;;6.85;;
24337;SDS011;12457;50.832;4.346;2023-07-28T02:57:05;10.13;;;6.22;;
24337;SDS011;12457;50.832;4.346;2023-07-28T02:59:33;15.57;;;6.45;;
24337;SDS011;12457;50.832;4.346;2023-07-28T03:01:58;9.77;;;6.13;;
24337;SDS011;12457;50.832;4.346;2023-07-28T03:04:24;12.10;;;6.28;;
24337;SDS011;12457;50.832;4.346;2023-07-28T03:06:50;11.52;;;6.20;;
24337;SDS011;12457;50.832;4.346;2023-07-28T03:09:16;9.27;;;6.25;;
24337;SDS011;12457;50.832;4.346;2023-07-28T03:11:42;12.30;;;7.10;;
24337;SDS011;12457;50.832;4.346;2023-07-28T03:14:08;11.20;;;6.00;;
24337;SDS011;12457;50.832;4.346;2023-07-28T03:16:34;13.48;;;6.50;;
24337;SDS011;12457;50.832;4.346;2023-07-28T03:19:00;12.05;;;6.25;;
24337;SDS011;12457;50.832;4.346;2023-07-28T03:21:25;11.52;;;6.43;;
24337;SDS011;12457;50.832;4.346;2023-07-28T03:23:54;11.30;;;6.13;;
24337;SDS011;12457;50.832;4.346;2023-07-28T03:26:20;10.93;;;6.60;;
24337;SDS011;12457;50.832;4.346;2023-07-28T03:28:46;7.78;;;5.15;;
24337;SDS011;12457;50.832;4.346;2023-07-28T03:31:11;14.77;;;6.82;;
24337;SDS011;12457;50.832;4.346;2023-07-28T03:33:37;7.53;;;5.60;;
24337;SDS011;12457;50.832;4.346;2023-07-28T03:36:03;7.35;;;6.10;;
24337;SDS011;12457;50.832;4.346;2023-07-28T03:38:30;11.70;;;5.43;;
24337;SDS011;12457;50.832;4.346;2023-07-28T03:40:55;9.52;;;5.38;;
24337;SDS011;12457;50.832;4.346;2023-07-28T03:43:21;10.90;;;5.95;;
24337;SDS011;12457;50.832;4.346;2023-07-28T03:45:47;13.25;;;5.75;;
24337;SDS011;12457;50.832;4.346;2023-07-28T03:48:13;7.57;;;5.30;;
24337;SDS011;12457;50.832;4.346;2023-07-28T03:50:39;9.18;;;6.10;;
24337;SDS011;12457;50.832;4.346;2023-07-28T03:53:04;13.50;;;6.03;;
24337;SDS011;12457;50.832;4.346;2023-07-28T03:55:30;14.98;;;5.10;;
24337;SDS011;12457;50.832;4.346;2023-07-28T03:57:55;10.90;;;5.65;;
24337;SDS011;12457;50.832;4.346;2023-07-28T04:00:21;6.93;;;5.32;;
24337;SDS011;12457;50.832;4.346;2023-07-28T04:02:47;8.60;;;5.15;;
24337;SDS011;12457;50.832;4.346;2023-07-28T04:05:13;7.45;;;4.75;;
24337;SDS011;12457;50.832;4.346;2023-07-28T04:07:38;6.07;;;5.13;;
24337;SDS011;12457;50.832;4.346;2023-07-28T04:10:04;8.50;;;4.97;;
24337;SDS011;12457;50.832;4.346;2023-07-28T04:12:30;6.50;;;4.70;;
24337;SDS011;12457;50.832;4.346;2023-07-28T04:14:56;9.50;;;5.15;;
24337;SDS011;12457;50.832;4.346;2023-07-28T04:17:22;14.38;;;5.07;;
24337;SDS011;12457;50.832;4.346;2023-07-28T04:19:47;5.53;;;4.72;;
24337;SDS011;12457;50.832;4.346;2023-07-28T04:22:13;7.47;;;4.30;;
24337;SDS011;12457;50.832;4.346;2023-07-28T04:24:41;10.82;;;4.18;;
24337;SDS011;12457;50.832;4.346;2023-07-28T04:27:06;7.45;;;4.70;;
24337;SDS011;12457;50.832;4.346;2023-07-28T04:29:32;7.88;;;4.30;;
24337;SDS011;12457;50.832;4.346;2023-07-28T04:31:58;11.65;;;4.72;;
24337;SDS011;12457;50.832;4.346;2023-07-28T04:34:23;5.57;;;3.70;;
24337;SDS011;12457;50.832;4.346;2023-07-28T04:36:49;6.38;;;4.05;;
24337;SDS011;12457;50.832;4.346;2023-07-28T04:39:15;8.40;;;3.67;;
24337;SDS011;12457;50.832;4.346;2023-07-28T04:41:40;5.95;;;3.80;;
24337;SDS011;12457;50.832;4.346;2023-07-28T04:44:18;10.65;;;3.60;;
24337;SDS011;12457;50.832;4.346;2023-07-28T04:46:47;5.75;;;3.60;;
24337;SDS011;12457;50.832;4.346;2023-07-28T04:49:13;6.93;;;3.70;;
24337;SDS011;12457;50.832;4.346;2023-07-28T04:51:38;6.07;;;3.78;;
24337;SDS011;12457;50.832;4.346;2023-07-28T04:54:04;3.08;;;2.78;;
24337;SDS011;12457;50.832;4.346;2023-07-28T04:56:30;5.65;;;2.97;;
24337;SDS011;12457;50.832;4.346;2023-07-28T04:58:55;5.88;;;3.28;;
24337;SDS011;12457;50.832;4.346;2023-07-28T05:01:23;11.65;;;3.38;;
24337;SDS011;12457;50.832;4.346;2023-07-28T05:03:50;7.18;;;3.05;;
24337;SDS011;12457;50.832;4.346;2023-07-28T05:06:16;14.32;;;5.40;;
24337;SDS011;12457;50.832;4.346;2023-07-28T05:08:42;21.13;;;6.70;;
24337;SDS011;12457;50.832;4.346;2023-07-28T05:11:08;11.98;;;4.40;;
24337;SDS011;12457;50.832;4.346;2023-07-28T05:13:33;7.50;;;3.55;;
24337;SDS011;12457;50.832;4.346;2023-07-28T05:15:59;6.82;;;3.00;;
24337;SDS011;12457;50.832;4.346;2023-07-28T05:18:25;8.85;;;3.40;;
24337;SDS011;12457;50.832;4.346;2023-07-28T05:20:50;6.05;;;3.75;;
24337;SDS011;12457;50.832;4.346;2023-07-28T05:23:16;8.50;;;3.13;;
24337;SDS011;12457;50.832;4.346;2023-07-28T05:25:42;7.50;;;3.38;;
24337;SDS011;12457;50.832;4.346;2023-07-28T05:28:07;6.05;;;3.08;;
24337;SDS011;12457;50.832;4.346;2023-07-28T05:30:33;4.10;;;2.78;;
24337;SDS011;12457;50.832;4.346;2023-07-28T05:32:59;3.33;;;2.60;;
24337;SDS011;12457;50.832;4.346;2023-07-28T05:35:24;4.43;;;2.65;;
24337;SDS011;12457;50.832;4.346;2023-07-28T05:37:50;2.90;;;2.60;;
24337;SDS011;12457;50.832;4.346;2023-07-28T05:40:16;4.60;;;2.63;;
24337;SDS011;12457;50.832;4.346;2023-07-28T05:42:41;2.75;;;2.45;;
24337;SDS011;12457;50.832;4.346;2023-07-28T05:45:07;4.72;;;3.22;;
24337;SDS011;12457;50.832;4.346;2023-07-28T05:47:33;3.58;;;2.00;;
24337;SDS011;12457;50.832;4.346;2023-07-28T05:49:59;15.93;;;6.15;;
24337;SDS011;12457;50.832;4.346;2023-07-28T05:52:25;13.40;;;5.70;;
24337;SDS011;12457;50.832;4.346;2023-07-28T05:54:51;6.43;;;3.60;;
24337;SDS011;12457;50.832;4.346;2023-07-28T05:57:16;4.93;;;2.70;;
24337;SDS011;12457;50.832;4.346;2023-07-28T05:59:42;3.03;;;2.38;;
24337;SDS011;12457;50.832;4.346;2023-07-28T06:02:08;3.63;;;2.13;;
24337;SDS011;12457;50.832;4.346;2023-07-28T06:04:33;3.80;;;2.10;;
24337;SDS011;12457;50.832;4.346;2023-07-28T06:06:59;3.03;;;2.28;;
24337;SDS011;12457;50.832;4.346;2023-07-28T06:09:25;3.47;;;2.42;;
24337;SDS011;12457;50.832;4.346;2023-07-28T06:11:50;4.85;;;3.33;;
24337;SDS011;12457;50.832;4.346;2023-07-28T06:14:16;8.07;;;2.80;;
24337;SDS011;12457;50.832;4.346;2023-07-28T06:16:41;4.80;;;3.08;;
24337;SDS011;12457;50.832;4.346;2023-07-28T06:19:07;5.55;;;2.92;;
24337;SDS011;12457;50.832;4.346;2023-07-28T06:21:33;6.25;;;2.60;;
24337;SDS011;12457;50.832;4.346;2023-07-28T06:23:59;5.63;;;2.33;;
24337;SDS011;12457;50.832;4.346;2023-07-28T06:26:25;5.72;;;3.00;;
24337;SDS011;12457;50.832;4.346;2023-07-28T06:29:06;4.63;;;2.63;;
24337;SDS011;12457;50.832;4.346;2023-07-28T06:31:31;5.60;;;2.55;;
24337;SDS011;12457;50.832;4.346;2023-07-28T06:33:57;3.75;;;2.42;;
24337;SDS011;12457;50.832;4.346;2023-07-28T06:36:23;3.08;;;2.30;;
24337;SDS011;12457;50.832;4.346;2023-07-28T06:38:49;3.58;;;2.38;;
24337;SDS011;12457;50.832;4.346;2023-07-28T06:41:17;2.22;;;1.90;;
24337;SDS011;12457;50.832;4.346;2023-07-28T06:43:43;1.42;;;1.33;;
24337;SDS011;12457;50.832;4.346;2023-07-28T06:46:08;2.05;;;1.40;;
24337;SDS011;12457;50.832;4.346;2023-07-28T06:48:34;1.83;;;1.40;;
24337;SDS011;12457;50.832;4.346;2023-07-28T06:51:00;2.28;;;1.30;;
24337;SDS011;12457;50.832;4.346;2023-07-28T06:53:25;3.70;;;1.48;;
24337;SDS011;12457;50.832;4.346;2023-07-28T06:55:51;1.92;;;1.08;;
24337;SDS011;12457;50.832;4.346;2023-07-28T06:58:18;1.88;;;1.00;;
24337;SDS011;12457;50.832;4.346;2023-07-28T07:00:43;1.20;;;1.10;;
24337;SDS011;12457;50.832;4.346;2023-07-28T07:03:09;1.10;;;0.90;;
24337;SDS011;12457;50.832;4.346;2023-07-28T07:05:35;1.02;;;0.60;;
24337;SDS011;12457;50.832;4.346;2023-07-28T07:08:01;1.40;;;0.90;;
24337;SDS011;12457;50.832;4.346;2023-07-28T07:10:27;1.70;;;0.68;;
24337;SDS011;12457;50.832;4.346;2023-07-28T07:12:53;0.60;;;0.60;;
24337;SDS011;12457;50.832;4.346;2023-07-28T07:15:18;1.23;;;0.90;;
24337;SDS011;12457;50.832;4.346;2023-07-28T07:17:44;1.17;;;0.80;;
24337;SDS011;12457;50.832;4.346;2023-07-28T07:20:10;0.85;;;0.70;;
24337;SDS011;12457;50.832;4.346;2023-07-28T07:22:36;1.17;;;1.00;;
24337;SDS011;12457;50.832;4.346;2023-07-28T07:25:02;1.45;;;1.20;;
24337;SDS011;12457;50.832;4.346;2023-07-28T07:27:29;0.93;;;0.80;;
24337;SDS011;12457;50.832;4.346;2023-07-28T07:29:55;5.18;;;2.00;;
24337;SDS011;12457;50.832;4.346;2023-07-28T07:32:20;2.72;;;0.93;;
24337;SDS011;12457;50.832;4.346;2023-07-28T07:34:46;2.90;;;1.05;;
24337;SDS011;12457;50.832;4.346;2023-07-28T07:37:12;2.83;;;1.15;;
24337;SDS011;12457;50.832;4.346;2023-07-28T07:39:37;2.17;;;1.58;;
24337;SDS011;12457;50.832;4.346;2023-07-28T07:42:06;1.67;;;1.23;;
24337;SDS011;12457;50.832;4.346;2023-07-28T07:44:32;2.05;;;1.10;;
24337;SDS011;12457;50.832;4.346;2023-07-28T07:46:59;1.77;;;1.00;;
24337;SDS011;12457;50.832;4.346;2023-07-28T07:49:26;1.88;;;1.20;;
24337;SDS011;12457;50.832;4.346;2023-07-28T07:51:52;2.75;;;1.90;;
24337;SDS011;12457;50.832;4.346;2023-07-28T07:54:18;3.30;;;1.38;;
24337;SDS011;12457;50.832;4.346;2023-07-28T07:56:44;3.58;;;1.65;;
24337;SDS011;12457;50.832;4.346;2023-07-28T07:59:17;3.53;;;1.77;;
24337;SDS011;12457;50.832;4.346;2023-07-28T08:01:42;2.05;;;1.60;;
24337;SDS011;12457;50.832;4.346;2023-07-28T08:04:09;3.42;;;1.90;;
24337;SDS011;12457;50.832;4.346;2023-07-28T08:06:36;5.72;;;2.25;;
24337;SDS011;12457;50.832;4.346;2023-07-28T08:09:02;2.83;;;1.83;;
24337;SDS011;12457;50.832;4.346;2023-07-28T08:11:28;5.82;;;2.45;;
24337;SDS011;12457;50.832;4.346;2023-07-28T08:13:53;4.88;;;2.08;;
24337;SDS011;12457;50.832;4.346;2023-07-28T08:16:32;2.13;;;1.30;;
24337;SDS011;12457;50.832;4.346;2023-07-28T08:18:58;5.78;;;1.92;;
24337;SDS011;12457;50.832;4.346;2023-07-28T08:21:23;2.55;;;1.52;;
24337;SDS011;12457;50.832;4.346;2023-07-28T08:23:49;1.75;;;1.48;;
24337;SDS011;12457;50.832;4.346;2023-07-28T08:26:15;5.45;;;1.50;;
24337;SDS011;12457;50.832;4.346;2023-07-28T08:28:41;8.77;;;1.40;;
24337;SDS011;12457;50.832;4.346;2023-07-28T08:31:06;2.28;;;1.27;;
24337;SDS011;12457;50.832;4.346;2023-07-28T08:33:33;4.18;;;2.10;;
24337;SDS011;12457;50.832;4.346;2023-07-28T08:35:59;2.22;;;1.25;;
24337;SDS011;12457;50.832;4.346;2023-07-28T08:38:24;2.78;;;2.05;;
24337;SDS011;12457;50.832;4.346;2023-07-28T08:40:50;3.08;;;1.70;;
24337;SDS011;12457;50.832;4.346;2023-07-28T08:43:16;1.70;;;1.58;;
24337;SDS011;12457;50.832;4.346;2023-07-28T08:45:41;4.57;;;2.00;;
24337;SDS011;12457;50.832;4.346;2023-07-28T08:48:07;4.53;;;1.90;;
24337;SDS011;12457;50.832;4.346;2023-07-28T08:50:33;2.40;;;1.50;;
24337;SDS011;12457;50.832;4.346;2023-07-28T08:52:58;4.15;;;2.10;;
24337;SDS011;12457;50.832;4.346;2023-07-28T08:55:24;3.72;;;2.20;;
24337;SDS011;12457;50.832;4.346;2023-07-28T08:57:50;2.42;;;1.25;;
24337;SDS011;12457;50.832;4.346;2023-07-28T09:00:16;3.22;;;1.70;;
24337;SDS011;12457;50.832;4.346;2023-07-28T09:02:43;4.32;;;2.60;;
24337;SDS011;12457;50.832;4.346;2023-07-28T09:05:18;11.63;;;6.57;;
24337;SDS011;12457;50.832;4.346;2023-07-28T09:07:45;8.65;;;5.55;;
24337;SDS011;12457;50.832;4.346;2023-07-28T09:10:11;7.18;;;4.90;;
24337;SDS011;12457;50.832;4.346;2023-07-28T09:12:44;3.80;;;1.92;;
24337;SDS011;12457;50.832;4.346;2023-07-28T09:15:11;5.63;;;3.45;;
24337;SDS011;12457;50.832;4.346;2023-07-28T09:17:41;1.88;;;1.52;;
24337;SDS011;12457;50.832;4.346;2023-07-28T09:20:13;2.92;;;1.55;;
24337;SDS011;12457;50.832;4.346;2023-07-28T09:22:41;2.03;;;1.20;;
24337;SDS011;12457;50.832;4.346;2023-07-28T09:25:12;2.25;;;1.25;;
24337;SDS011;12457;50.832;4.346;2023-07-28T09:27:39;2.95;;;2.03;;
24337;SDS011;12457;50.832;4.346;2023-07-28T09:30:05;4.88;;;1.50;;
24337;SDS011;12457;50.832;4.346;2023-07-28T09:32:33;4.30;;;1.30;;
24337;SDS011;12457;50.832;4.346;2023-07-28T09:35:10;1.80;;;1.33;;
24337;SDS011;12457;50.832;4.346;2023-07-28T09:37:38;1.50;;;1.00;;
24337;SDS011;12457;50.832;4.346;2023-07-28T09:40:07;1.83;;;1.10;;
24337;SDS011;12457;50.832;4.346;2023-07-28T09:42:38;5.50;;;1.42;;
24337;SDS011;12457;50.832;4.346;2023-07-28T09:45:13;3.97;;;2.03;;
24337;SDS011;12457;50.832;4.346;2023-07-28T09:47:39;2.65;;;1.80;;
24337;SDS011;12457;50.832;4.346;2023-07-28T09:50:07;4.80;;;2.15;;
24337;SDS011;12457;50.832;4.346;2023-07-28T09:52:37;3.00;;;1.70;;
24337;SDS011;12457;50.832;4.346;2023-07-28T09:55:07;4.35;;;2.33;;
24337;SDS011;12457;50.832;4.346;2023-07-28T09:57:39;4.68;;;1.88;;
24337;SDS011;12457;50.832;4.346;2023-07-28T10:02:38;3.85;;;2.05;;
24337;SDS011;12457;50.832;4.346;2023-07-28T10:05:05;5.35;;;2.70;;
24337;SDS011;12457;50.832;4.346;2023-07-28T10:07:32;5.45;;;3.53;;
24337;SDS011;12457;50.832;4.346;2023-07-28T10:10:04;11.40;;;5.40;;
24337;SDS011;12457;50.832;4.346;2023-07-28T10:12:42;6.53;;;4.28;;
24337;SDS011;12457;50.832;4.346;2023-07-28T10:15:14;5.53;;;2.72;;
24337;SDS011;12457;50.832;4.346;2023-07-28T10:17:45;5.00;;;2.95;;
24337;SDS011;12457;50.832;4.346;2023-07-28T10:20:29;4.20;;;2.40;;
24337;SDS011;12457;50.832;4.346;2023-07-28T10:23:06;3.63;;;2.83;;
24337;SDS011;12457;50.832;4.346;2023-07-28T10:25:33;6.82;;;3.33;;
24337;SDS011;12457;50.832;4.346;2023-07-28T10:28:01;6.82;;;3.38;;
24337;SDS011;12457;50.832;4.346;2023-07-28T10:30:50;3.20;;;2.70;;
24337;SDS011;12457;50.832;4.346;2023-07-28T10:33:37;5.30;;;3.13;;
24337;SDS011;12457;50.832;4.346;2023-07-28T10:36:14;4.85;;;3.08;;
24337;SDS011;12457;50.832;4.346;2023-07-28T10:39:00;4.25;;;3.42;;
24337;SDS011;12457;50.832;4.346;2023-07-28T10:41:37;5.22;;;2.72;;
24337;SDS011;12457;50.832;4.346;2023-07-28T10:44:02;4.13;;;3.20;;
24337;SDS011;12457;50.832;4.346;2023-07-28T10:46:37;4.55;;;2.72;;
24337;SDS011;12457;50.832;4.346;2023-07-28T10:49:04;2.85;;;2.15;;
24337;SDS011;12457;50.832;4.346;2023-07-28T10:51:30;3.95;;;2.83;;
24337;SDS011;12457;50.832;4.346;2023-07-28T10:53:59;7.50;;;3.30;;
24337;SDS011;12457;50.832;4.346;2023-07-28T10:56:25;5.22;;;3.40;;
24337;SDS011;12457;50.832;4.346;2023-07-28T11:01:30;6.03;;;4.65;;
24337;SDS011;12457;50.832;4.346;2023-07-28T11:04:13;5.57;;;4.13;;
24337;SDS011;12457;50.832;4.346;2023-07-28T11:06:42;7.18;;;3.63;;
24337;SDS011;12457;50.832;4.346;2023-07-28T11:09:10;3.28;;;2.90;;
24337;SDS011;12457;50.832;4.346;2023-07-28T11:11:37;3.33;;;3.03;;
24337;SDS011;12457;50.832;4.346;2023-07-28T11:14:04;3.30;;;3.00;;
24337;SDS011;12457;50.832;4.346;2023-07-28T11:16:40;6.45;;;2.90;;
24337;SDS011;12457;50.832;4.346;2023-07-28T11:19:12;9.38;;;3.08;;
24337;SDS011;12457;50.832;4.346;2023-07-28T11:21:42;3.92;;;2.70;;
24337;SDS011;12457;50.832;4.346;2023-07-28T11:24:09;3.00;;;2.40;;
24337;SDS011;12457;50.832;4.346;2023-07-28T11:26:36;2.55;;;2.03;;
24337;SDS011;12457;50.832;4.346;2023-07-28T11:29:04;2.50;;;2.30;;
24337;SDS011;12457;50.832;4.346;2023-07-28T11:31:31;4.80;;;2.35;;
24337;SDS011;12457;50.832;4.346;2023-07-28T11:33:58;1.92;;;1.77;;
24337;SDS011;12457;50.832;4.346;2023-07-28T11:36:27;4.63;;;2.05;;
24337;SDS011;12457;50.832;4.346;2023-07-28T11:38:59;2.00;;;1.80;;
24337;SDS011;12457;50.832;4.346;2023-07-28T11:41:26;4.55;;;1.80;;
24337;SDS011;12457;50.832;4.346;2023-07-28T11:43:52;6.00;;;3.33;;
24337;SDS011;12457;50.832;4.346;2023-07-28T11:49:11;4.30;;;2.20;;
24337;SDS011;12457;50.832;4.346;2023-07-28T11:51:42;3.50;;;1.87;;
24337;SDS011;12457;50.832;4.346;2023-07-28T11:54:13;5.68;;;2.58;;
24337;SDS011;12457;50.832;4.346;2023-07-28T11:56:43;5.63;;;2.10;;
24337;SDS011;12457;50.832;4.346;2023-07-28T11:59:13;3.17;;;2.50;;
24337;SDS011;12457;50.832;4.346;2023-07-28T12:04:28;2.40;;;2.03;;
24337;SDS011;12457;50.832;4.346;2023-07-28T12:09:28;2.20;;;1.40;;
24337;SDS011;12457;50.832;4.346;2023-07-28T12:11:54;2.25;;;1.40;;
24337;SDS011;12457;50.832;4.346;2023-07-28T12:14:34;2.65;;;1.58;;
24337;SDS011;12457;50.832;4.346;2023-07-28T12:17:00;3.83;;;1.50;;
24337;SDS011;12457;50.832;4.346;2023-07-28T12:19:28;6.43;;;1.52;;
24337;SDS011;12457;50.832;4.346;2023-07-28T12:21:54;3.03;;;1.63;;
24337;SDS011;12457;50.832;4.346;2023-07-28T12:24:20;2.10;;;1.30;;
24337;SDS011;12457;50.832;4.346;2023-07-28T12:26:46;2.55;;;1.40;;
24337;SDS011;12457;50.832;4.346;2023-07-28T12:29:13;3.97;;;2.00;;
24337;SDS011;12457;50.832;4.346;2023-07-28T12:31:54;4.80;;;2.17;;
24337;SDS011;12457;50.832;4.346;2023-07-28T12:34:20;4.53;;;1.50;;
24337;SDS011;12457;50.832;4.346;2023-07-28T12:36:45;3.28;;;1.50;;
24337;SDS011;12457;50.832;4.346;2023-07-28T12:39:12;5.15;;;1.60;;
24337;SDS011;12457;50.832;4.346;2023-07-28T12:41:39;3.17;;;2.00;;
24337;SDS011;12457;50.832;4.346;2023-07-28T12:44:04;2.15;;;1.50;;
24337;SDS011;12457;50.832;4.346;2023-07-28T12:46:30;4.53;;;1.35;;
24337;SDS011;12457;50.832;4.346;2023-07-28T12:48:55;2.80;;;1.20;;
24337;SDS011;12457;50.832;4.346;2023-07-28T12:51:21;3.97;;;1.50;;
24337;SDS011;12457;50.832;4.346;2023-07-28T12:53:47;4.03;;;1.30;;
24337;SDS011;12457;50.832;4.346;2023-07-28T12:56:12;3.75;;;1.83;;
24337;SDS011;12457;50.832;4.346;2023-07-28T12:58:38;2.63;;;1.30;;
24337;SDS011;12457;50.832;4.346;2023-07-28T13:01:04;3.13;;;1.48;;
24337;SDS011;12457;50.832;4.346;2023-07-28T13:03:30;2.40;;;1.60;;
24337;SDS011;12457;50.832;4.346;2023-07-28T13:05:56;3.42;;;1.38;;
24337;SDS011;12457;50.832;4.346;2023-07-28T13:08:21;4.05;;;1.70;;
24337;SDS011;12457;50.832;4.346;2023-07-28T13:10:47;1.58;;;1.30;;
24337;SDS011;12457;50.832;4.346;2023-07-28T13:13:13;2.72;;;1.13;;
24337;SDS011;12457;50.832;4.346;2023-07-28T13:15:40;2.83;;;1.40;;
24337;SDS011;12457;50.832;4.346;2023-07-28T13:18:05;2.33;;;1.33;;
24337;SDS011;12457;50.832;4.346;2023-07-28T13:20:31;1.27;;;0.93;;
24337;SDS011;12457;50.832;4.346;2023-07-28T13:22:57;2.22;;;1.13;;
24337;SDS011;12457;50.832;4.346;2023-07-28T13:25:22;5.15;;;1.45;;
24337;SDS011;12457;50.832;4.346;2023-07-28T13:27:48;3.25;;;1.63;;
24337;SDS011;12457;50.832;4.346;2023-07-28T13:30:14;2.92;;;1.13;;
24337;SDS011;12457;50.832;4.346;2023-07-28T13:32:40;1.92;;;1.30;;
24337;SDS011;12457;50.832;4.346;2023-07-28T13:35:06;2.80;;;1.05;;
24337;SDS011;12457;50.832;4.346;2023-07-28T13:37:33;5.22;;;1.23;;
24337;SDS011;12457;50.832;4.346;2023-07-28T13:39:59;1.75;;;1.08;;
24337;SDS011;12457;50.832;4.346;2023-07-28T13:42:25;7.95;;;1.50;;
24337;SDS011;12457;50.832;4.346;2023-07-28T13:44:50;3.15;;;1.65;;
24337;SDS011;12457;50.832;4.346;2023-07-28T13:47:16;1.77;;;1.27;;
24337;SDS011;12457;50.832;4.346;2023-07-28T13:49:42;1.63;;;1.00;;
24337;SDS011;12457;50.832;4.346;2023-07-28T13:52:07;3.55;;;1.42;;
24337;SDS011;12457;50.832;4.346;2023-07-28T13:54:33;2.45;;;1.20;;
24337;SDS011;12457;50.832;4.346;2023-07-28T13:56:59;3.63;;;1.00;;
24337;SDS011;12457;50.832;4.346;2023-07-28T13:59:24;1.70;;;1.02;;
24337;SDS011;12457;50.832;4.346;2023-07-28T14:01:50;4.28;;;1.10;;
24337;SDS011;12457;50.832;4.346;2023-07-28T14:04:16;3.65;;;1.10;;
24337;SDS011;12457;50.832;4.346;2023-07-28T14:06:42;1.05;;;0.95;;
24337;SDS011;12457;50.832;4.346;2023-07-28T14:09:07;1.38;;;1.20;;
24337;SDS011;12457;50.832;4.346;2023-07-28T14:11:34;3.42;;;1.38;;
24337;SDS011;12457;50.832;4.346;2023-07-28T14:14:00;3.38;;;1.15;;
24337;SDS011;12457;50.832;4.346;2023-07-28T14:16:26;2.55;;;1.10;;
24337;SDS011;12457;50.832;4.346;2023-07-28T14:18:52;3.90;;;1.08;;
24337;SDS011;12457;50.832;4.346;2023-07-28T14:21:17;2.88;;;1.00;;
24337;SDS011;12457;50.832;4.346;2023-07-28T14:23:43;3.53;;;0.95;;
24337;SDS011;12457;50.832;4.346;2023-07-28T14:26:09;2.83;;;1.17;;
24337;SDS011;12457;50.832;4.346;2023-07-28T14:28:34;3.75;;;1.35;;
24337;SDS011;12457;50.832;4.346;2023-07-28T14:31:00;6.57;;;1.20;;
24337;SDS011;12457;50.832;4.346;2023-07-28T14:33:26;2.88;;;1.50;;
24337;SDS011;12457;50.832;4.346;2023-07-28T14:35:51;5.15;;;1.80;;
24337;SDS011;12457;50.832;4.346;2023-07-28T14:38:19;3.03;;;1.20;;
24337;SDS011;12457;50.832;4.346;2023-07-28T14:40:45;2.95;;;1.45;;
24337;SDS011;12457;50.832;4.346;2023-07-28T14:43:14;2.10;;;1.20;;
24337;SDS011;12457;50.832;4.346;2023-07-28T14:45:41;4.28;;;1.20;;
24337;SDS011;12457;50.832;4.346;2023-07-28T14:48:07;2.35;;;1.00;;
24337;SDS011;12457;50.832;4.346;2023-07-28T14:50:34;5.88;;;1.45;;
24337;SDS011;12457;50.832;4.346;2023-07-28T14:52:59;3.08;;;1.70;;
24337;SDS011;12457;50.832;4.346;2023-07-28T14:55:26;4.15;;;1.42;;
24337;SDS011;12457;50.832;4.346;2023-07-28T14:57:52;4.50;;;1.17;;
24337;SDS011;12457;50.832;4.346;2023-07-28T15:00:18;3.25;;;1.50;;